SBI512 UUDD-UWUU
Flight info
| Callsign | SBI512 |
|---|---|
| Flight time | 1h 43m |
| Altitude | 39000 |
| Route | KOGOM L94 EKPIR M864 INKEB L94 UNORO T788 NAMUD L994 DILUP |
| Aircraft | A20N/M-SDE2E3FGHIRWXY/LB1 |
Departure
| Time | 2026-05-01 12:11 |
|---|---|
| Airport | Domodedovo International Airport (UUDD) |
Arrival
| Time | 2026-05-01 13:54 |
|---|---|
| Airport | Ufa International Airport (UWUU) |
| Time | Latitude | Longitude | Altitude | Speed | Heading |
|---|---|---|---|---|---|
| 2026-05-01 11:47 | 55.41343 | 37.90282 | 573 ft | 0 kts | 51° |
| 2026-05-01 11:54 | 55.41333 | 37.90261 | 577 ft | 2 kts | 50° |
| 2026-05-01 11:54 | 55.41322 | 37.90238 | 576 ft | 2 kts | 49° |
| 2026-05-01 11:55 | 55.41312 | 37.90215 | 577 ft | 2 kts | 72° |
| 2026-05-01 11:55 | 55.41310 | 37.90186 | 574 ft | 2 kts | 104° |
| 2026-05-01 11:55 | 55.41317 | 37.90160 | 574 ft | 2 kts | 135° |
| 2026-05-01 11:55 | 55.41330 | 37.90141 | 577 ft | 2 kts | 138° |
| 2026-05-01 11:56 | 55.41339 | 37.90127 | 576 ft | 1 kts | 141° |
| 2026-05-01 11:56 | 55.41340 | 37.90127 | 576 ft | 0 kts | 141° |
| 2026-05-01 12:00 | 55.41323 | 37.90149 | 575 ft | 6 kts | 142° |
| 2026-05-01 12:00 | 55.41180 | 37.90326 | 568 ft | 13 kts | 148° |
| 2026-05-01 12:01 | 55.41104 | 37.90401 | 570 ft | 10 kts | 153° |
| 2026-05-01 12:01 | 55.41043 | 37.90352 | 569 ft | 11 kts | 248° |
| 2026-05-01 12:01 | 55.41034 | 37.90221 | 574 ft | 11 kts | 256° |
| 2026-05-01 12:01 | 55.40990 | 37.90093 | 570 ft | 13 kts | 234° |
| 2026-05-01 12:02 | 55.40935 | 37.89951 | 573 ft | 15 kts | 236° |
| 2026-05-01 12:02 | 55.40876 | 37.89795 | 573 ft | 14 kts | 234° |
| 2026-05-01 12:02 | 55.40817 | 37.89646 | 572 ft | 13 kts | 235° |
| 2026-05-01 12:02 | 55.40749 | 37.89565 | 568 ft | 3 kts | 229° |
| 2026-05-01 12:03 | 55.40742 | 37.89549 | 568 ft | 3 kts | 233° |
| 2026-05-01 12:03 | 55.40724 | 37.89498 | 573 ft | 6 kts | 237° |
| 2026-05-01 12:03 | 55.40696 | 37.89423 | 571 ft | 9 kts | 235° |
| 2026-05-01 12:03 | 55.40675 | 37.89342 | 571 ft | 7 kts | 269° |
| 2026-05-01 12:04 | 55.40704 | 37.89267 | 573 ft | 8 kts | 329° |
| 2026-05-01 12:04 | 55.40755 | 37.89208 | 570 ft | 9 kts | 326° |
| 2026-05-01 12:04 | 55.40812 | 37.89140 | 572 ft | 10 kts | 324° |
| 2026-05-01 12:04 | 55.40877 | 37.89058 | 578 ft | 12 kts | 325° |
| 2026-05-01 12:05 | 55.40948 | 37.88973 | 575 ft | 13 kts | 326° |
| 2026-05-01 12:05 | 55.41083 | 37.88812 | 576 ft | 11 kts | 326° |
| 2026-05-01 12:05 | 55.41154 | 37.88727 | 577 ft | 13 kts | 326° |
| 2026-05-01 12:06 | 55.41237 | 37.88627 | 579 ft | 15 kts | 325° |
| 2026-05-01 12:06 | 55.41311 | 37.88538 | 579 ft | 14 kts | 325° |
| 2026-05-01 12:06 | 55.41388 | 37.88444 | 579 ft | 14 kts | 325° |
| 2026-05-01 12:06 | 55.41474 | 37.88338 | 580 ft | 16 kts | 326° |
| 2026-05-01 12:07 | 55.41572 | 37.88223 | 581 ft | 18 kts | 326° |
| 2026-05-01 12:07 | 55.41678 | 37.88094 | 582 ft | 19 kts | 325° |
| 2026-05-01 12:07 | 55.41793 | 37.87953 | 584 ft | 20 kts | 324° |
| 2026-05-01 12:07 | 55.41895 | 37.87835 | 590 ft | 15 kts | 326° |
| 2026-05-01 12:08 | 55.41976 | 37.87739 | 594 ft | 13 kts | 325° |
| 2026-05-01 12:08 | 55.42047 | 37.87652 | 596 ft | 12 kts | 325° |
| 2026-05-01 12:08 | 55.42117 | 37.87567 | 599 ft | 13 kts | 326° |
| 2026-05-01 12:08 | 55.42177 | 37.87470 | 598 ft | 11 kts | 291° |
| 2026-05-01 12:09 | 55.42175 | 37.87423 | 598 ft | 0 kts | 246° |
| 2026-05-01 12:09 | 55.42168 | 37.87400 | 598 ft | 5 kts | 239° |
| 2026-05-01 12:09 | 55.42132 | 37.87311 | 596 ft | 12 kts | 227° |
| 2026-05-01 12:09 | 55.42055 | 37.87283 | 595 ft | 13 kts | 157° |
| 2026-05-01 12:10 | 55.42034 | 37.87304 | 595 ft | 0 kts | 147° |
| 2026-05-01 12:10 | 55.42034 | 37.87305 | 595 ft | 2 kts | 147° |
| 2026-05-01 12:10 | 55.41821 | 37.87560 | 592 ft | 73 kts | 146° |
| 2026-05-01 12:11 | 55.40345 | 37.89349 | 640 ft | 168 kts | 145° |
| 2026-05-01 12:11 | 55.39400 | 37.90511 | 1252 ft | 165 kts | 147° |
| 2026-05-01 12:11 | 55.38385 | 37.91491 | 1930 ft | 169 kts | 158° |
| 2026-05-01 12:12 | 55.37266 | 37.92241 | 2520 ft | 176 kts | 162° |
| 2026-05-01 12:12 | 55.36042 | 37.92928 | 2942 ft | 192 kts | 165° |
| 2026-05-01 12:12 | 55.34704 | 37.93633 | 3450 ft | 211 kts | 164° |
| 2026-05-01 12:12 | 55.33227 | 37.94449 | 4030 ft | 232 kts | 164° |
| 2026-05-01 12:13 | 55.31608 | 37.94636 | 4795 ft | 241 kts | 194° |
| 2026-05-01 12:13 | 55.30115 | 37.93291 | 5749 ft | 242 kts | 225° |
| 2026-05-01 12:13 | 55.29171 | 37.90863 | 6707 ft | 243 kts | 245° |
| 2026-05-01 12:13 | 55.28464 | 37.88175 | 7604 ft | 247 kts | 250° |
| 2026-05-01 12:14 | 55.28183 | 37.85233 | 8514 ft | 247 kts | 278° |
| 2026-05-01 12:14 | 55.28729 | 37.82408 | 9454 ft | 247 kts | 306° |
| 2026-05-01 12:14 | 55.29964 | 37.80352 | 10379 ft | 248 kts | 327° |
| 2026-05-01 12:14 | 55.31435 | 37.78605 | 11033 ft | 261 kts | 328° |
| 2026-05-01 12:15 | 55.32970 | 37.76853 | 11867 ft | 264 kts | 334° |
| 2026-05-01 12:15 | 55.34688 | 37.75740 | 12764 ft | 263 kts | 351° |
| 2026-05-01 12:15 | 55.36511 | 37.75449 | 13627 ft | 267 kts | 0° |
| 2026-05-01 12:15 | 55.38408 | 37.75330 | 14254 ft | 277 kts | 0° |
| 2026-05-01 12:16 | 55.40337 | 37.75185 | 15074 ft | 278 kts | 0° |
| 2026-05-01 12:16 | 55.42268 | 37.75029 | 15901 ft | 279 kts | 0° |
| 2026-05-01 12:16 | 55.44213 | 37.74872 | 16702 ft | 280 kts | 0° |
| 2026-05-01 12:16 | 55.46169 | 37.74713 | 17512 ft | 282 kts | 1° |
| 2026-05-01 12:17 | 55.48139 | 37.74554 | 18324 ft | 284 kts | 1° |
| 2026-05-01 12:17 | 55.50117 | 37.74397 | 19022 ft | 286 kts | 1° |
| 2026-05-01 12:17 | 55.52095 | 37.74589 | 19693 ft | 284 kts | 13° |
| 2026-05-01 12:17 | 55.53981 | 37.75561 | 20350 ft | 284 kts | 24° |
| 2026-05-01 12:18 | 55.55721 | 37.77214 | 21030 ft | 285 kts | 31° |
| 2026-05-01 12:18 | 55.57405 | 37.78972 | 21675 ft | 286 kts | 31° |
| 2026-05-01 12:18 | 55.59136 | 37.80754 | 22336 ft | 289 kts | 31° |
| 2026-05-01 12:18 | 55.60884 | 37.82549 | 22995 ft | 290 kts | 31° |
| 2026-05-01 12:19 | 55.62478 | 37.84726 | 23604 ft | 294 kts | 46° |
| 2026-05-01 12:19 | 55.63618 | 37.87765 | 24127 ft | 302 kts | 62° |
| 2026-05-01 12:19 | 55.64153 | 37.91422 | 24607 ft | 315 kts | 79° |
| 2026-05-01 12:19 | 55.63957 | 37.95378 | 25076 ft | 331 kts | 94° |
| 2026-05-01 12:20 | 55.63434 | 37.99429 | 25274 ft | 344 kts | 95° |
| 2026-05-01 12:20 | 55.62886 | 38.03653 | 25409 ft | 358 kts | 95° |
| 2026-05-01 12:20 | 55.62324 | 38.07979 | 25757 ft | 364 kts | 95° |
| 2026-05-01 12:20 | 55.61753 | 38.12354 | 26248 ft | 366 kts | 95° |
| 2026-05-01 12:21 | 55.61181 | 38.16759 | 26708 ft | 369 kts | 95° |
| 2026-05-01 12:21 | 55.60611 | 38.21214 | 27145 ft | 372 kts | 94° |
| 2026-05-01 12:21 | 55.60041 | 38.25695 | 27588 ft | 375 kts | 94° |
| 2026-05-01 12:21 | 55.59464 | 38.30218 | 27999 ft | 379 kts | 94° |
| 2026-05-01 12:22 | 55.58888 | 38.34720 | 28419 ft | 382 kts | 95° |
| 2026-05-01 12:22 | 55.58319 | 38.39317 | 28824 ft | 381 kts | 91° |
| 2026-05-01 12:22 | 55.58214 | 38.43898 | 29193 ft | 372 kts | 77° |
| 2026-05-01 12:22 | 55.58753 | 38.48340 | 29574 ft | 365 kts | 65° |
| 2026-05-01 12:23 | 55.59852 | 38.52344 | 29940 ft | 361 kts | 55° |
| 2026-05-01 12:23 | 55.61144 | 38.56189 | 30325 ft | 364 kts | 55° |
| 2026-05-01 12:23 | 55.62348 | 38.59801 | 30580 ft | 368 kts | 56° |
| 2026-05-01 12:23 | 55.63651 | 38.63729 | 30834 ft | 372 kts | 56° |
| 2026-05-01 12:24 | 55.64947 | 38.67645 | 31104 ft | 376 kts | 56° |
| 2026-05-01 12:24 | 55.66291 | 38.71711 | 31377 ft | 379 kts | 56° |
| 2026-05-01 12:24 | 55.67628 | 38.75764 | 31639 ft | 383 kts | 56° |
| 2026-05-01 12:24 | 55.68961 | 38.79814 | 31884 ft | 387 kts | 56° |
| 2026-05-01 12:25 | 55.70326 | 38.83967 | 32139 ft | 391 kts | 57° |
| 2026-05-01 12:25 | 55.73168 | 38.92262 | 32622 ft | 396 kts | 52° |
| 2026-05-01 12:25 | 55.74891 | 38.96088 | 32857 ft | 398 kts | 46° |
| 2026-05-01 12:26 | 55.76797 | 38.99668 | 33081 ft | 401 kts | 45° |
| 2026-05-01 12:26 | 55.80653 | 39.06937 | 33531 ft | 407 kts | 45° |
| 2026-05-01 12:26 | 55.82592 | 39.10632 | 33742 ft | 411 kts | 47° |
| 2026-05-01 12:27 | 55.84389 | 39.14626 | 33953 ft | 415 kts | 53° |
| 2026-05-01 12:27 | 55.87294 | 39.23626 | 34331 ft | 424 kts | 61° |
| 2026-05-01 12:28 | 55.89933 | 39.33076 | 34760 ft | 426 kts | 61° |
| 2026-05-01 12:28 | 55.91257 | 39.37807 | 34989 ft | 427 kts | 61° |
| 2026-05-01 12:28 | 55.93902 | 39.47319 | 35445 ft | 429 kts | 61° |
| 2026-05-01 12:29 | 55.95209 | 39.52046 | 35639 ft | 430 kts | 61° |
| 2026-05-01 12:29 | 55.96546 | 39.56897 | 35849 ft | 431 kts | 61° |
| 2026-05-01 12:29 | 55.99178 | 39.66472 | 36255 ft | 433 kts | 62° |
| 2026-05-01 12:30 | 56.01712 | 39.76269 | 36628 ft | 436 kts | 69° |
| 2026-05-01 12:30 | 56.02527 | 39.81509 | 36802 ft | 440 kts | 76° |
| 2026-05-01 12:30 | 56.02951 | 39.86951 | 36980 ft | 444 kts | 83° |
| 2026-05-01 12:31 | 56.03047 | 39.92483 | 37161 ft | 445 kts | 85° |
| 2026-05-01 12:31 | 56.03127 | 39.98015 | 37333 ft | 446 kts | 85° |
| 2026-05-01 12:31 | 56.03211 | 40.03555 | 37518 ft | 447 kts | 85° |
| 2026-05-01 12:31 | 56.03292 | 40.09120 | 37688 ft | 447 kts | 86° |
| 2026-05-01 12:32 | 56.03367 | 40.14686 | 37859 ft | 448 kts | 86° |
| 2026-05-01 12:32 | 56.03504 | 40.25845 | 38169 ft | 449 kts | 86° |
| 2026-05-01 12:32 | 56.03568 | 40.31439 | 38321 ft | 450 kts | 86° |
| 2026-05-01 12:33 | 56.03629 | 40.37037 | 38466 ft | 451 kts | 86° |
| 2026-05-01 12:33 | 56.03686 | 40.42402 | 38606 ft | 451 kts | 86° |
| 2026-05-01 12:33 | 56.03741 | 40.47940 | 38761 ft | 451 kts | 86° |
| 2026-05-01 12:33 | 56.03796 | 40.53564 | 38889 ft | 452 kts | 87° |
| 2026-05-01 12:34 | 56.03848 | 40.59191 | 39002 ft | 452 kts | 87° |
| 2026-05-01 12:34 | 56.03897 | 40.64820 | 39111 ft | 453 kts | 87° |
| 2026-05-01 12:34 | 56.03973 | 40.74190 | 39198 ft | 453 kts | 87° |
| 2026-05-01 12:35 | 56.04052 | 40.85477 | 39193 ft | 453 kts | 87° |
| 2026-05-01 12:35 | 56.04133 | 40.98573 | 39195 ft | 453 kts | 88° |
| 2026-05-01 12:36 | 56.04183 | 41.08038 | 39189 ft | 454 kts | 88° |
| 2026-05-01 12:36 | 56.04233 | 41.19334 | 39193 ft | 454 kts | 88° |
| 2026-05-01 12:37 | 56.04272 | 41.30580 | 39190 ft | 454 kts | 88° |
| 2026-05-01 12:37 | 56.04301 | 41.41887 | 39187 ft | 454 kts | 88° |
| 2026-05-01 12:38 | 56.04320 | 41.53213 | 39185 ft | 455 kts | 88° |
| 2026-05-01 12:38 | 56.04329 | 41.64517 | 39178 ft | 455 kts | 89° |
| 2026-05-01 12:39 | 56.04327 | 41.75851 | 39179 ft | 455 kts | 89° |
| 2026-05-01 12:39 | 56.04314 | 41.87102 | 39178 ft | 455 kts | 89° |
| 2026-05-01 12:40 | 56.04292 | 41.98445 | 39173 ft | 456 kts | 89° |
| 2026-05-01 12:40 | 56.04259 | 42.09813 | 39173 ft | 456 kts | 89° |
| 2026-05-01 12:41 | 56.04215 | 42.21179 | 39177 ft | 457 kts | 89° |
| 2026-05-01 12:41 | 56.04161 | 42.32541 | 39175 ft | 457 kts | 89° |
| 2026-05-01 12:42 | 56.04096 | 42.43920 | 39178 ft | 458 kts | 89° |
| 2026-05-01 12:42 | 56.04023 | 42.55247 | 39176 ft | 458 kts | 90° |
| 2026-05-01 12:43 | 56.03890 | 42.66655 | 39175 ft | 459 kts | 90° |
| 2026-05-01 12:43 | 56.03735 | 42.78062 | 39176 ft | 459 kts | 90° |
| 2026-05-01 12:44 | 56.03576 | 42.89491 | 39172 ft | 460 kts | 90° |
| 2026-05-01 12:45 | 56.03230 | 43.12363 | 39171 ft | 460 kts | 91° |
| 2026-05-01 12:45 | 56.03041 | 43.23820 | 39173 ft | 461 kts | 91° |
| 2026-05-01 12:46 | 56.03014 | 43.35280 | 39167 ft | 461 kts | 85° |
| 2026-05-01 12:46 | 56.03747 | 43.46588 | 39161 ft | 461 kts | 82° |
| 2026-05-01 12:47 | 56.04524 | 43.57986 | 39160 ft | 461 kts | 82° |
| 2026-05-01 12:47 | 56.05285 | 43.69388 | 39158 ft | 462 kts | 83° |
| 2026-05-01 12:48 | 56.06037 | 43.80805 | 39159 ft | 462 kts | 83° |
| 2026-05-01 12:48 | 56.06776 | 43.92173 | 39159 ft | 462 kts | 83° |
| 2026-05-01 12:49 | 56.07508 | 44.03613 | 39152 ft | 462 kts | 83° |
| 2026-05-01 12:49 | 56.08230 | 44.15049 | 39149 ft | 462 kts | 83° |
| 2026-05-01 12:50 | 56.08942 | 44.26513 | 39147 ft | 463 kts | 83° |
| 2026-05-01 12:50 | 56.09643 | 44.37987 | 39146 ft | 463 kts | 83° |
| 2026-05-01 12:51 | 56.10334 | 44.49448 | 39136 ft | 463 kts | 83° |
| 2026-05-01 12:52 | 56.11203 | 44.66724 | 39136 ft | 464 kts | 89° |
| 2026-05-01 12:52 | 56.10908 | 44.84010 | 39133 ft | 465 kts | 91° |
| 2026-05-01 12:53 | 56.10572 | 45.00531 | 39134 ft | 465 kts | 92° |
| 2026-05-01 12:54 | 56.10307 | 45.12115 | 39129 ft | 466 kts | 92° |
| 2026-05-01 12:54 | 56.09892 | 45.29460 | 39128 ft | 466 kts | 92° |
| 2026-05-01 12:55 | 56.09463 | 45.46877 | 39123 ft | 466 kts | 92° |
| 2026-05-01 12:56 | 56.09161 | 45.58490 | 39117 ft | 467 kts | 92° |
| 2026-05-01 12:56 | 56.08848 | 45.70096 | 39118 ft | 467 kts | 92° |
| 2026-05-01 12:57 | 56.08524 | 45.81735 | 39118 ft | 467 kts | 92° |
| 2026-05-01 12:57 | 56.08017 | 45.99173 | 39114 ft | 468 kts | 93° |
| 2026-05-01 12:58 | 56.07668 | 46.10712 | 39110 ft | 468 kts | 93° |
| 2026-05-01 12:59 | 56.07121 | 46.28140 | 39108 ft | 467 kts | 93° |
| 2026-05-01 12:59 | 56.06439 | 46.45586 | 39105 ft | 468 kts | 98° |
| 2026-05-01 13:00 | 56.04067 | 46.62464 | 39101 ft | 467 kts | 111° |
| 2026-05-01 13:01 | 56.00571 | 46.78742 | 39100 ft | 467 kts | 111° |
| 2026-05-01 13:02 | 55.97071 | 46.95007 | 39097 ft | 468 kts | 111° |
| 2026-05-01 13:07 | 55.70584 | 48.13865 | 39093 ft | 472 kts | 113° |
| 2026-05-01 13:08 | 55.68105 | 48.24660 | 39094 ft | 473 kts | 113° |
| 2026-05-01 13:08 | 55.65620 | 48.35428 | 39081 ft | 471 kts | 113° |
| 2026-05-01 13:09 | 55.63130 | 48.46160 | 39079 ft | 472 kts | 113° |
| 2026-05-01 13:09 | 55.60626 | 48.56905 | 39084 ft | 472 kts | 113° |
| 2026-05-01 13:10 | 55.58118 | 48.67622 | 39082 ft | 472 kts | 114° |
| 2026-05-01 13:10 | 55.55594 | 48.78354 | 39083 ft | 473 kts | 114° |
| 2026-05-01 13:11 | 55.53069 | 48.89037 | 39080 ft | 474 kts | 114° |
| 2026-05-01 13:11 | 55.50527 | 48.99737 | 39075 ft | 472 kts | 114° |
| 2026-05-01 13:12 | 55.47976 | 49.10420 | 39076 ft | 473 kts | 114° |
| 2026-05-01 13:12 | 55.45414 | 49.21095 | 39075 ft | 473 kts | 114° |
| 2026-05-01 13:13 | 55.42842 | 49.31760 | 39074 ft | 472 kts | 114° |
| 2026-05-01 13:13 | 55.40266 | 49.42394 | 39074 ft | 472 kts | 115° |
| 2026-05-01 13:14 | 55.37673 | 49.53050 | 39074 ft | 473 kts | 115° |
| 2026-05-01 13:14 | 55.35228 | 49.63049 | 39074 ft | 474 kts | 115° |
| 2026-05-01 13:15 | 55.33561 | 49.69837 | 39076 ft | 474 kts | 115° |
| 2026-05-01 13:15 | 55.30979 | 49.80316 | 39074 ft | 474 kts | 115° |
| 2026-05-01 13:16 | 55.28346 | 49.90944 | 39069 ft | 474 kts | 115° |
| 2026-05-01 13:16 | 55.25709 | 50.01541 | 39067 ft | 474 kts | 115° |
| 2026-05-01 13:17 | 55.20411 | 50.22677 | 39058 ft | 473 kts | 116° |
| 2026-05-01 13:18 | 55.16412 | 50.38494 | 39053 ft | 474 kts | 116° |
| 2026-05-01 13:18 | 55.13750 | 50.48962 | 39052 ft | 474 kts | 116° |
| 2026-05-01 13:19 | 55.11068 | 50.59464 | 39047 ft | 473 kts | 116° |
| 2026-05-01 13:20 | 55.07028 | 50.75184 | 39039 ft | 473 kts | 116° |
| 2026-05-01 13:20 | 55.04817 | 50.83866 | 39033 ft | 466 kts | 114° |
| 2026-05-01 13:21 | 55.01568 | 51.00068 | 39031 ft | 476 kts | 111° |
| 2026-05-01 13:21 | 54.99397 | 51.10961 | 39024 ft | 475 kts | 111° |
| 2026-05-01 13:22 | 54.97211 | 51.21830 | 39020 ft | 475 kts | 111° |
| 2026-05-01 13:22 | 54.95017 | 51.32676 | 39018 ft | 475 kts | 111° |
| 2026-05-01 13:23 | 54.92812 | 51.43510 | 39015 ft | 475 kts | 112° |
| 2026-05-01 13:23 | 54.90594 | 51.54354 | 39013 ft | 476 kts | 112° |
| 2026-05-01 13:24 | 54.88381 | 51.65115 | 39004 ft | 476 kts | 112° |
| 2026-05-01 13:25 | 54.85018 | 51.81359 | 39011 ft | 476 kts | 112° |
| 2026-05-01 13:25 | 54.82765 | 51.92163 | 39005 ft | 477 kts | 112° |
| 2026-05-01 13:26 | 54.80499 | 52.02981 | 39004 ft | 477 kts | 112° |
| 2026-05-01 13:26 | 54.78220 | 52.13795 | 39002 ft | 477 kts | 112° |
| 2026-05-01 13:27 | 54.75935 | 52.24589 | 39002 ft | 477 kts | 112° |
| 2026-05-01 13:27 | 54.72485 | 52.40760 | 39000 ft | 477 kts | 112° |
| 2026-05-01 13:28 | 54.69026 | 52.56850 | 38994 ft | 477 kts | 113° |
| 2026-05-01 13:29 | 54.64374 | 52.78325 | 38984 ft | 478 kts | 111° |
| 2026-05-01 13:31 | 54.59127 | 53.11608 | 38956 ft | 478 kts | 107° |
| 2026-05-01 13:31 | 54.56524 | 53.28233 | 37770 ft | 480 kts | 107° |
| 2026-05-01 13:32 | 54.54776 | 53.39308 | 36604 ft | 477 kts | 108° |
| 2026-05-01 13:33 | 54.52151 | 53.55799 | 34956 ft | 477 kts | 108° |
| 2026-05-01 13:33 | 54.50389 | 53.66776 | 33867 ft | 479 kts | 108° |
| 2026-05-01 13:34 | 54.48614 | 53.77769 | 32605 ft | 476 kts | 108° |
| 2026-05-01 13:34 | 54.46834 | 53.88722 | 31386 ft | 472 kts | 108° |
| 2026-05-01 13:35 | 54.45062 | 53.99553 | 30233 ft | 470 kts | 108° |
| 2026-05-01 13:35 | 54.44178 | 54.04929 | 29576 ft | 466 kts | 108° |
| 2026-05-01 13:35 | 54.42430 | 54.15518 | 28269 ft | 455 kts | 108° |
| 2026-05-01 13:36 | 54.41567 | 54.20718 | 27639 ft | 450 kts | 108° |
| 2026-05-01 13:36 | 54.40713 | 54.25851 | 27018 ft | 444 kts | 108° |
| 2026-05-01 13:36 | 54.39033 | 54.35897 | 25829 ft | 434 kts | 108° |
| 2026-05-01 13:37 | 54.38413 | 54.40352 | 25297 ft | 432 kts | 101° |
| 2026-05-01 13:37 | 54.38203 | 54.45471 | 24714 ft | 430 kts | 91° |
| 2026-05-01 13:37 | 54.38517 | 54.50564 | 24131 ft | 428 kts | 81° |
| 2026-05-01 13:37 | 54.39144 | 54.55527 | 23555 ft | 425 kts | 79° |
| 2026-05-01 13:38 | 54.40363 | 54.65288 | 22205 ft | 416 kts | 80° |
| 2026-05-01 13:38 | 54.40965 | 54.70187 | 21536 ft | 412 kts | 80° |
| 2026-05-01 13:38 | 54.41551 | 54.74987 | 20883 ft | 408 kts | 80° |
| 2026-05-01 13:39 | 54.42121 | 54.79661 | 20250 ft | 400 kts | 80° |
| 2026-05-01 13:39 | 54.42682 | 54.84276 | 19649 ft | 392 kts | 80° |
| 2026-05-01 13:39 | 54.43235 | 54.88851 | 19031 ft | 390 kts | 80° |
| 2026-05-01 13:39 | 54.43783 | 54.93400 | 18447 ft | 387 kts | 80° |
| 2026-05-01 13:40 | 54.44327 | 54.97922 | 17806 ft | 385 kts | 80° |
| 2026-05-01 13:40 | 54.44864 | 55.02411 | 17139 ft | 382 kts | 80° |
| 2026-05-01 13:40 | 54.45397 | 55.06874 | 16483 ft | 380 kts | 80° |
| 2026-05-01 13:40 | 54.45924 | 55.11304 | 15852 ft | 378 kts | 80° |
| 2026-05-01 13:41 | 54.46449 | 55.15737 | 15223 ft | 376 kts | 80° |
| 2026-05-01 13:41 | 54.46969 | 55.20127 | 14607 ft | 374 kts | 80° |
| 2026-05-01 13:41 | 54.47484 | 55.24500 | 14009 ft | 372 kts | 80° |
| 2026-05-01 13:41 | 54.47994 | 55.28853 | 13381 ft | 370 kts | 80° |
| 2026-05-01 13:42 | 54.48499 | 55.33174 | 12719 ft | 368 kts | 80° |
| 2026-05-01 13:42 | 54.49001 | 55.37491 | 12055 ft | 363 kts | 79° |
| 2026-05-01 13:42 | 54.49482 | 55.41632 | 11433 ft | 352 kts | 79° |
| 2026-05-01 13:42 | 54.49952 | 55.45685 | 10958 ft | 338 kts | 79° |
| 2026-05-01 13:43 | 54.50175 | 55.49085 | 10615 ft | 328 kts | 94° |
| 2026-05-01 13:43 | 54.49669 | 55.52789 | 10293 ft | 311 kts | 116° |
| 2026-05-01 13:43 | 54.48440 | 55.55720 | 9963 ft | 296 kts | 139° |
| 2026-05-01 13:43 | 54.46750 | 55.57557 | 9626 ft | 281 kts | 158° |
| 2026-05-01 13:44 | 54.44988 | 55.58831 | 9264 ft | 270 kts | 158° |
| 2026-05-01 13:44 | 54.43283 | 55.60074 | 8909 ft | 260 kts | 157° |
| 2026-05-01 13:44 | 54.41634 | 55.61283 | 8564 ft | 258 kts | 157° |
| 2026-05-01 13:44 | 54.39980 | 55.62495 | 8328 ft | 257 kts | 157° |
| 2026-05-01 13:45 | 54.38346 | 55.63692 | 8261 ft | 259 kts | 157° |
| 2026-05-01 13:45 | 54.36693 | 55.64902 | 8188 ft | 258 kts | 157° |
| 2026-05-01 13:45 | 54.35024 | 55.66122 | 8102 ft | 256 kts | 157° |
| 2026-05-01 13:45 | 54.33412 | 55.67299 | 8024 ft | 257 kts | 157° |
| 2026-05-01 13:46 | 54.31755 | 55.68506 | 7958 ft | 257 kts | 157° |
| 2026-05-01 13:46 | 54.30110 | 55.69705 | 7758 ft | 258 kts | 157° |
| 2026-05-01 13:46 | 54.28468 | 55.70925 | 7361 ft | 254 kts | 152° |
| 2026-05-01 13:46 | 54.27155 | 55.72899 | 6899 ft | 254 kts | 122° |
| 2026-05-01 13:47 | 54.26567 | 55.75728 | 6457 ft | 254 kts | 93° |
| 2026-05-01 13:47 | 54.26859 | 55.78662 | 5994 ft | 249 kts | 63° |
| 2026-05-01 13:47 | 54.27739 | 55.81195 | 5523 ft | 248 kts | 54° |
| 2026-05-01 13:47 | 54.28736 | 55.83617 | 5056 ft | 248 kts | 53° |
| 2026-05-01 13:48 | 54.29720 | 55.86049 | 4597 ft | 249 kts | 55° |
| 2026-05-01 13:48 | 54.30654 | 55.88491 | 4127 ft | 248 kts | 56° |
| 2026-05-01 13:48 | 54.31563 | 55.90980 | 3659 ft | 246 kts | 57° |
| 2026-05-01 13:48 | 54.32487 | 55.93443 | 3206 ft | 244 kts | 48° |
| 2026-05-01 13:49 | 54.33810 | 55.95107 | 2929 ft | 233 kts | 20° |
| 2026-05-01 13:49 | 54.35382 | 55.95870 | 2717 ft | 237 kts | 14° |
| 2026-05-01 13:49 | 54.36973 | 55.96588 | 2504 ft | 235 kts | 14° |
| 2026-05-01 13:49 | 54.38548 | 55.97308 | 2323 ft | 236 kts | 14° |
| 2026-05-01 13:50 | 54.40129 | 55.98033 | 2094 ft | 233 kts | 14° |
| 2026-05-01 13:50 | 54.41664 | 55.98713 | 1997 ft | 219 kts | 7° |
| 2026-05-01 13:50 | 54.43074 | 55.98405 | 1994 ft | 195 kts | 339° |
| 2026-05-01 13:50 | 54.44256 | 55.97481 | 2013 ft | 184 kts | 332° |
| 2026-05-01 13:51 | 54.45310 | 55.96486 | 1991 ft | 166 kts | 330° |
| 2026-05-01 13:51 | 54.46249 | 55.95580 | 1996 ft | 144 kts | 331° |
| 2026-05-01 13:51 | 54.47127 | 55.94739 | 1999 ft | 144 kts | 331° |
| 2026-05-01 13:51 | 54.47960 | 55.93938 | 1911 ft | 134 kts | 331° |
| 2026-05-01 13:52 | 54.48763 | 55.93168 | 1729 ft | 130 kts | 331° |
| 2026-05-01 13:52 | 54.49554 | 55.92408 | 1555 ft | 130 kts | 331° |
| 2026-05-01 13:52 | 54.50342 | 55.91650 | 1373 ft | 130 kts | 331° |
| 2026-05-01 13:52 | 54.51133 | 55.90889 | 1203 ft | 131 kts | 331° |
| 2026-05-01 13:53 | 54.51931 | 55.90123 | 1012 ft | 131 kts | 331° |
| 2026-05-01 13:53 | 54.53509 | 55.88602 | 687 ft | 128 kts | 330° |
| 2026-05-01 13:53 | 54.54280 | 55.87857 | 511 ft | 127 kts | 331° |
| 2026-05-01 13:54 | 54.55027 | 55.87158 | 450 ft | 113 kts | 332° |
| 2026-05-01 13:54 | 54.55536 | 55.86649 | 450 ft | 55 kts | 331° |
| 2026-05-01 13:54 | 54.55740 | 55.86453 | 449 ft | 18 kts | 332° |
| 2026-05-01 13:54 | 54.55818 | 55.86397 | 450 ft | 12 kts | 0° |
| 2026-05-01 13:55 | 54.55875 | 55.86505 | 450 ft | 14 kts | 61° |
| 2026-05-01 13:55 | 54.55925 | 55.86657 | 449 ft | 15 kts | 60° |
| 2026-05-01 13:55 | 54.55971 | 55.86798 | 449 ft | 13 kts | 60° |
| 2026-05-01 13:55 | 54.56021 | 55.86949 | 449 ft | 14 kts | 60° |
| 2026-05-01 13:56 | 54.56071 | 55.87098 | 449 ft | 14 kts | 60° |
| 2026-05-01 13:56 | 54.56125 | 55.87262 | 449 ft | 17 kts | 60° |
| 2026-05-01 13:56 | 54.56185 | 55.87445 | 449 ft | 18 kts | 60° |
| 2026-05-01 13:56 | 54.56233 | 55.87590 | 449 ft | 14 kts | 60° |
| 2026-05-01 13:57 | 54.56284 | 55.87748 | 450 ft | 16 kts | 60° |
| 2026-05-01 13:57 | 54.56321 | 55.87858 | 450 ft | 15 kts | 60° |
| 2026-05-01 13:57 | 54.56390 | 55.88069 | 449 ft | 14 kts | 60° |
| 2026-05-01 13:57 | 54.56424 | 55.88183 | 449 ft | 10 kts | 72° |
| 2026-05-01 13:58 | 54.56444 | 55.88275 | 449 ft | 7 kts | 61° |
| 2026-05-01 13:58 | 54.56462 | 55.88331 | 449 ft | 4 kts | 60° |
| 2026-05-01 13:58 | 54.56464 | 55.88338 | 449 ft | 0 kts | 60° |